createdAt,value
2019-06-10T00:00:37.239Z,99.40
2019-06-10T00:03:07.247Z,99.10
2019-06-10T00:05:37.330Z,98.40
2019-06-10T00:08:07.310Z,98.90
2019-06-10T00:10:35.948Z,97.90
2019-06-10T00:13:07.386Z,98.30
2019-06-10T00:15:40.748Z,98.50
2019-06-10T00:18:35.314Z,97.70
2019-06-10T00:20:51.214Z,98.20
2019-06-10T00:23:21.666Z,98.30
2019-06-10T00:25:51.579Z,98.30
2019-06-10T00:28:21.767Z,98.40
2019-06-10T00:30:55.034Z,98.60
2019-06-10T00:33:24.722Z,99.30
2019-06-10T00:35:53.526Z,99.40
2019-06-10T00:38:22.182Z,99.90
2019-06-10T00:40:51.318Z,99.10
2019-06-10T00:43:21.364Z,99.50
2019-06-10T00:45:51.361Z,99.40
2019-06-10T00:48:28.294Z,99.40
2019-06-10T00:50:51.839Z,99.90
2019-06-10T00:53:21.186Z,99.90
2019-06-10T00:55:51.542Z,99.90
2019-06-10T00:58:21.878Z,99.90
2019-06-10T01:00:52.670Z,99.90
2019-06-10T01:03:22.215Z,99.90
2019-06-10T01:05:51.019Z,99.90
2019-06-10T01:08:21.418Z,99.90
2019-06-10T01:10:52.228Z,99.90
2019-06-10T01:13:21.125Z,99.90
2019-06-10T01:15:51.162Z,99.90
2019-06-10T01:18:34.858Z,99.90
2019-06-10T01:20:55.825Z,99.90
2019-06-10T01:23:24.473Z,99.90
2019-06-10T01:26:12.958Z,99.90
2019-06-10T01:28:43.673Z,99.90
2019-06-10T01:31:17.502Z,99.90
2019-06-10T01:33:42.775Z,99.90
2019-06-10T01:36:13.388Z,99.90
2019-06-10T01:38:51.266Z,99.90
2019-06-10T01:41:22.162Z,99.90
2019-06-10T01:43:52.457Z,99.90
2019-06-10T01:46:21.671Z,99.90
2019-06-10T01:48:52.143Z,99.90
2019-06-10T01:51:21.738Z,99.90
2019-06-10T01:53:51.572Z,99.90
2019-06-10T01:56:21.442Z,99.90
2019-06-10T01:58:51.454Z,99.90
2019-06-10T02:01:41.262Z,99.90
2019-06-10T02:04:13.115Z,99.90
2019-06-10T02:06:40.636Z,99.90
2019-06-10T02:09:13.004Z,99.90
2019-06-10T02:11:41.399Z,99.90
2019-06-10T02:14:14.711Z,99.90
2019-06-10T02:16:42.256Z,99.90
2019-06-10T02:19:24.599Z,99.90
2019-06-10T02:21:56.155Z,99.90
2019-06-10T02:24:34.869Z,99.90
2019-06-10T02:27:04.747Z,99.90
2019-06-10T02:29:42.724Z,99.90
2019-06-10T02:32:17.271Z,99.90
2019-06-10T02:35:01.245Z,99.90
2019-06-10T02:37:19.222Z,99.90
2019-06-10T02:39:44.462Z,99.90
2019-06-10T02:42:30.363Z,99.90
2019-06-10T02:44:58.772Z,99.90
2019-06-10T02:47:33.511Z,99.50
2019-06-10T02:50:03.174Z,99.50
2019-06-10T02:52:32.504Z,98.50
2019-06-10T02:54:59.000Z,98.40
2019-06-10T02:57:36.587Z,97.90
2019-06-10T03:00:06.405Z,98.20
2019-06-10T03:02:35.871Z,99.20
2019-06-10T03:05:04.624Z,98.80
2019-06-10T03:07:35.405Z,98.50
2019-06-10T03:10:04.655Z,99.60
2019-06-10T03:12:35.362Z,99.00
2019-06-10T03:15:05.400Z,99.10
2019-06-10T03:17:33.948Z,98.80
2019-06-10T03:20:02.722Z,99.60
2019-06-10T03:22:32.846Z,99.90
2019-06-10T03:25:03.406Z,99.40
2019-06-10T03:27:32.849Z,99.20
2019-06-10T03:30:14.415Z,98.20
2019-06-10T03:32:40.984Z,98.30
2019-06-10T03:35:08.602Z,97.10
2019-06-10T03:37:37.319Z,94.90
2019-06-10T03:40:08.838Z,95.00
2019-06-10T03:42:38.979Z,94.10
2019-06-10T03:45:08.568Z,95.20
2019-06-10T03:47:37.308Z,95.30
2019-06-10T03:50:09.035Z,93.50
2019-06-10T03:52:39.800Z,92.70
2019-06-10T03:55:08.881Z,91.60
2019-06-10T03:57:37.834Z,92.00
2019-06-10T04:00:11.466Z,92.30
2019-06-10T04:02:38.796Z,92.40
2019-06-10T04:05:08.285Z,92.40
2019-06-10T04:07:37.779Z,92.60
2019-06-10T04:10:06.777Z,92.80
2019-06-10T04:12:37.512Z,93.00
2019-06-10T04:15:06.632Z,92.00
2019-06-10T04:17:35.439Z,92.00
2019-06-10T04:20:11.769Z,92.00
2019-06-10T04:22:37.644Z,92.20
2019-06-10T04:25:07.173Z,92.10
2019-06-10T04:27:38.741Z,92.10
2019-06-10T04:30:09.095Z,91.50
2019-06-10T04:32:37.877Z,91.90
2019-06-10T04:35:07.511Z,91.90
2019-06-10T04:37:37.131Z,92.30
2019-06-10T04:40:10.074Z,91.40
2019-06-10T04:42:38.639Z,90.90
2019-06-10T04:45:09.247Z,91.30
2019-06-10T04:47:37.983Z,91.30
2019-06-10T04:50:20.753Z,91.30
2019-06-10T04:52:43.018Z,90.90
2019-06-10T04:55:07.440Z,89.70
2019-06-10T04:57:36.732Z,90.30
2019-06-10T05:00:14.344Z,89.20
2019-06-10T05:02:43.138Z,90.20
2019-06-10T05:05:13.143Z,88.30
2019-06-10T05:07:43.315Z,89.30
2019-06-10T05:10:12.511Z,87.10
2019-06-10T05:12:43.261Z,88.40
2019-06-10T05:15:13.948Z,85.30
2019-06-10T05:17:45.110Z,85.50
2019-06-10T05:20:18.155Z,83.80
2019-06-10T05:22:52.700Z,84.10
2019-06-10T05:25:23.626Z,84.00
2019-06-10T05:27:55.032Z,81.10
2019-06-10T05:30:26.534Z,77.90
2019-06-10T05:32:59.505Z,72.00
2019-06-10T05:35:36.801Z,68.40
2019-06-10T05:38:07.631Z,67.90
2019-06-10T05:40:36.382Z,70.80
2019-06-10T05:43:06.517Z,74.10
2019-06-10T05:45:36.327Z,72.70
2019-06-10T05:48:08.789Z,74.10
2019-06-10T05:50:39.036Z,75.00
2019-06-10T05:53:07.777Z,75.90
2019-06-10T05:55:39.652Z,73.80
2019-06-10T05:58:08.485Z,72.60
2019-06-10T06:00:37.169Z,69.10
2019-06-10T06:03:12.033Z,63.40
2019-06-10T06:05:43.244Z,61.40
2019-06-10T06:08:12.684Z,56.40
2019-06-10T06:10:42.369Z,57.00
2019-06-10T06:13:13.364Z,59.30
2019-06-10T06:15:42.503Z,59.10
2019-06-10T06:18:13.992Z,56.90
2019-06-10T06:20:45.087Z,55.00
2019-06-10T06:23:13.826Z,48.00
2019-06-10T06:25:46.274Z,48.80
2019-06-10T06:28:16.032Z,47.30
2019-06-10T06:30:43.655Z,45.90
2019-06-10T06:33:13.588Z,48.80
2019-06-10T06:35:46.178Z,49.80
2019-06-10T06:38:13.988Z,49.10
2019-06-10T06:40:43.450Z,48.50
2019-06-10T06:43:17.152Z,48.60
2019-06-10T06:45:47.735Z,49.10
2019-06-10T06:48:16.428Z,50.30
2019-06-10T06:51:01.713Z,51.30
2019-06-10T06:53:28.920Z,46.60
2019-06-10T06:55:47.443Z,45.70
2019-06-10T06:58:16.149Z,46.20
2019-06-10T07:01:00.472Z,46.50
2019-06-10T07:03:15.295Z,46.00
2019-06-10T07:05:45.791Z,43.60
2019-06-10T07:08:15.565Z,42.90
2019-06-10T07:10:45.675Z,43.00
2019-06-10T07:13:14.410Z,42.60
2019-06-10T07:15:46.977Z,42.50
2019-06-10T07:18:15.203Z,43.80
2019-06-10T07:20:45.826Z,40.30
2019-06-10T07:23:14.202Z,38.50
2019-06-10T07:25:47.227Z,38.70
2019-06-10T07:28:15.251Z,39.30
2019-06-10T07:30:51.017Z,38.80
2019-06-10T07:33:15.710Z,37.40
2019-06-10T07:35:46.621Z,39.30
2019-06-10T07:38:15.313Z,40.20
2019-06-10T07:40:45.872Z,41.10
2019-06-10T07:43:14.774Z,41.20
2019-06-10T07:45:47.595Z,40.40
2019-06-10T07:48:13.971Z,39.30
2019-06-10T07:50:44.266Z,40.50
2019-06-10T07:53:13.684Z,42.30
2019-06-10T07:55:45.976Z,40.60
2019-06-10T07:58:13.030Z,40.40
2019-06-10T08:00:48.050Z,40.40
2019-06-10T08:03:17.396Z,37.40
2019-06-10T08:05:46.717Z,38.20
2019-06-10T08:08:15.532Z,37.30
2019-06-10T08:10:46.062Z,38.20
2019-06-10T08:13:15.965Z,40.40
2019-06-10T08:15:46.104Z,40.30
2019-06-10T08:18:16.294Z,38.90
2019-06-10T08:20:48.076Z,39.00
2019-06-10T08:23:23.319Z,41.00
2019-06-10T08:25:57.745Z,38.20
2019-06-10T08:28:25.133Z,38.90
2019-06-10T08:30:53.834Z,37.90
2019-06-10T08:33:25.852Z,37.60
2019-06-10T08:35:59.403Z,37.80
2019-06-10T08:38:27.244Z,37.50
2019-06-10T08:40:57.879Z,38.00
2019-06-10T08:43:27.196Z,39.80
2019-06-10T08:45:55.914Z,40.40
2019-06-10T08:48:25.332Z,38.80
2019-06-10T08:50:55.827Z,40.50
2019-06-10T08:53:25.132Z,42.10
2019-06-10T08:55:55.034Z,40.40
2019-06-10T08:58:25.175Z,40.80
2019-06-10T09:00:54.070Z,40.80
2019-06-10T09:03:23.343Z,41.00
2019-06-10T09:05:57.677Z,41.30
2019-06-10T09:08:25.731Z,42.70
2019-06-10T09:10:58.406Z,42.90
2019-06-10T09:13:26.955Z,43.50
2019-06-10T09:16:10.864Z,43.20
2019-06-10T09:18:26.056Z,43.10
2019-06-10T09:20:56.250Z,44.90
2019-06-10T09:23:25.937Z,43.80
2019-06-10T09:25:57.268Z,42.90
2019-06-10T09:28:27.564Z,42.50
2019-06-10T09:30:59.201Z,43.20
2019-06-10T09:33:28.157Z,43.70
2019-06-10T09:35:56.836Z,43.50
2019-06-10T09:38:25.824Z,44.50
2019-06-10T09:41:01.368Z,46.10
2019-06-10T09:43:25.670Z,45.10
2019-06-10T09:45:56.556Z,46.10
2019-06-10T09:48:25.689Z,46.40
2019-06-10T09:50:58.648Z,46.90
2019-06-10T09:53:33.533Z,47.80
2019-06-10T09:55:59.938Z,47.80
2019-06-10T09:58:27.227Z,49.40
2019-06-10T10:01:03.285Z,48.90
2019-06-10T10:03:33.082Z,52.80
2019-06-10T10:06:14.052Z,50.80
2019-06-10T10:08:35.655Z,49.70
2019-06-10T10:11:04.408Z,51.80
2019-06-10T10:13:35.368Z,50.30
2019-06-10T10:16:04.850Z,52.20
2019-06-10T10:18:35.377Z,50.90
2019-06-10T10:21:09.830Z,51.80
2019-06-10T10:23:52.553Z,52.50
2019-06-10T10:26:12.726Z,53.40
2019-06-10T10:28:42.372Z,53.40
2019-06-10T10:31:12.942Z,52.60
2019-06-10T10:33:40.684Z,52.00
2019-06-10T10:36:10.070Z,52.40
2019-06-10T10:38:38.671Z,53.00
2019-06-10T10:41:07.899Z,51.90
2019-06-10T10:43:37.891Z,51.10
2019-06-10T10:46:09.212Z,51.30
2019-06-10T10:48:37.191Z,52.60
2019-06-10T10:51:15.756Z,52.10
2019-06-10T10:53:39.058Z,52.00
2019-06-10T10:56:29.954Z,52.30
2019-06-10T10:58:58.839Z,52.50
2019-06-10T11:01:28.300Z,52.00
2019-06-10T11:03:59.252Z,53.40
2019-06-10T11:06:32.347Z,52.40
2019-06-10T11:09:01.227Z,52.90
2019-06-10T11:11:33.128Z,48.70
2019-06-10T11:14:03.464Z,51.50
2019-06-10T11:16:33.189Z,49.70
2019-06-10T11:19:02.675Z,50.70
2019-06-10T11:21:33.055Z,51.00
2019-06-10T11:24:04.996Z,52.20
2019-06-10T11:26:33.762Z,52.10
2019-06-10T11:29:03.089Z,52.10
2019-06-10T11:31:32.914Z,50.40
2019-06-10T11:34:04.128Z,53.10
2019-06-10T11:36:35.719Z,50.60
2019-06-10T11:39:06.930Z,50.80
2019-06-10T11:41:35.990Z,51.40
2019-06-10T11:44:05.862Z,51.30
2019-06-10T11:46:34.604Z,50.80
2019-06-10T11:49:04.047Z,52.10
2019-06-10T11:51:33.651Z,50.80
2019-06-10T11:54:03.547Z,52.10
2019-06-10T11:56:33.617Z,55.10
2019-06-10T11:59:08.928Z,51.60
2019-06-10T12:01:34.082Z,50.30
2019-06-10T12:04:04.244Z,49.30
2019-06-10T12:06:34.082Z,51.70
2019-06-10T12:09:07.305Z,52.80
2019-06-10T12:11:36.817Z,52.70
2019-06-10T12:14:06.904Z,50.50
2019-06-10T12:17:17.695Z,51.20
2019-06-10T12:19:05.939Z,50.50
2019-06-10T12:21:34.907Z,52.60
2019-06-10T12:24:06.472Z,50.70
2019-06-10T12:26:35.424Z,54.00
2019-06-10T12:29:06.911Z,52.40
2019-06-10T12:31:37.578Z,50.20
2019-06-10T12:34:06.471Z,51.80
2019-06-10T12:36:38.243Z,52.20
2019-06-10T12:39:15.563Z,50.40
2019-06-10T12:41:44.776Z,50.10
2019-06-10T12:44:15.638Z,49.70
2019-06-10T12:46:45.843Z,50.60
2019-06-10T12:49:18.508Z,51.40
2019-06-10T12:51:47.184Z,51.40
2019-06-10T12:54:15.920Z,51.10
2019-06-10T12:56:44.552Z,50.70
2019-06-10T12:59:13.804Z,50.40
2019-06-10T13:01:44.789Z,52.60
2019-06-10T13:04:15.930Z,50.10
2019-06-10T13:06:48.324Z,50.60
2019-06-10T13:09:18.467Z,51.30
2019-06-10T13:11:47.803Z,49.90
2019-06-10T13:14:19.034Z,50.20
2019-06-10T13:16:47.775Z,50.20
2019-06-10T13:19:16.525Z,49.90
2019-06-10T13:21:45.144Z,49.00
2019-06-10T13:24:14.060Z,51.30
2019-06-10T13:26:43.283Z,50.60
2019-06-10T13:29:17.227Z,51.20
2019-06-10T13:31:43.613Z,50.80
2019-06-10T13:34:14.696Z,50.90
2019-06-10T13:36:43.085Z,50.50
2019-06-10T13:39:13.500Z,50.60
2019-06-10T13:41:44.079Z,50.10
2019-06-10T13:44:16.518Z,50.30
2019-06-10T13:46:49.124Z,50.70
2019-06-10T13:49:18.191Z,51.30
2019-06-10T13:51:46.960Z,50.10
2019-06-10T13:54:17.916Z,51.40
2019-06-10T13:56:47.881Z,50.80
2019-06-10T13:59:16.736Z,50.50
2019-06-10T14:01:46.547Z,51.00
2019-06-10T14:04:24.775Z,51.60
2019-06-10T14:06:56.764Z,50.10
2019-06-10T14:09:23.057Z,51.00
2019-06-10T14:11:52.745Z,51.40
2019-06-10T14:14:22.992Z,51.60
2019-06-10T14:16:53.965Z,52.90
2019-06-10T14:19:23.189Z,52.50
2019-06-10T14:21:54.718Z,51.50
2019-06-10T14:24:24.980Z,51.50
2019-06-10T14:26:55.922Z,52.00
2019-06-10T14:29:24.688Z,53.40
2019-06-10T14:31:53.462Z,52.10
2019-06-10T14:34:22.593Z,51.60
2019-06-10T14:36:52.532Z,53.90
2019-06-10T14:39:23.065Z,54.10
2019-06-10T14:41:52.271Z,52.90
2019-06-10T14:44:23.414Z,52.10
2019-06-10T14:46:55.765Z,52.10
2019-06-10T14:49:25.406Z,53.90
2019-06-10T14:51:55.865Z,51.90
2019-06-10T14:54:24.615Z,52.10
2019-06-10T14:56:57.035Z,52.80
2019-06-10T14:59:24.180Z,54.60
2019-06-10T15:01:52.809Z,54.20
2019-06-10T15:04:22.525Z,52.20
2019-06-10T15:06:53.657Z,52.00
2019-06-10T15:09:24.255Z,51.80
2019-06-10T15:11:53.208Z,51.60
2019-06-10T15:14:24.437Z,51.60
2019-06-10T15:16:53.837Z,52.90
2019-06-10T15:19:28.642Z,53.60
2019-06-10T15:21:58.352Z,52.80
2019-06-10T15:24:27.149Z,53.20
2019-06-10T15:27:09.042Z,53.60
2019-06-10T15:29:26.275Z,54.80
2019-06-10T15:32:10.222Z,52.80
2019-06-10T15:34:32.588Z,53.40
2019-06-10T15:37:02.857Z,53.70
2019-06-10T15:39:33.340Z,54.00
2019-06-10T15:42:03.251Z,53.80
2019-06-10T15:44:52.541Z,53.70
2019-06-10T15:47:03.186Z,54.00
2019-06-10T15:49:32.739Z,53.40
2019-06-10T15:52:04.082Z,54.10
2019-06-10T15:54:37.262Z,53.40
2019-06-10T15:57:22.685Z,53.30
2019-06-10T15:59:43.554Z,53.50
2019-06-10T16:02:14.956Z,54.30
2019-06-10T16:04:43.206Z,54.70
2019-06-10T16:07:14.655Z,55.30
2019-06-10T16:09:45.471Z,53.90
2019-06-10T16:12:17.665Z,55.60
2019-06-10T16:14:45.692Z,54.90
2019-06-10T16:17:15.745Z,56.00
2019-06-10T16:19:46.430Z,56.00
2019-06-10T16:22:17.409Z,56.00
2019-06-10T16:24:48.821Z,56.10
2019-06-10T16:27:17.925Z,55.80
2019-06-10T16:29:52.885Z,56.00
2019-06-10T16:32:24.566Z,56.30
2019-06-10T16:34:55.146Z,56.70
2019-06-10T16:37:25.753Z,57.10
2019-06-10T16:39:55.088Z,56.70
2019-06-10T16:42:27.620Z,56.70
2019-06-10T16:44:56.443Z,57.00
2019-06-10T16:47:27.234Z,57.60
2019-06-10T16:49:57.209Z,58.50
2019-06-10T16:52:30.411Z,58.00
2019-06-10T16:55:02.122Z,58.30
2019-06-10T16:57:33.271Z,58.80
2019-06-10T17:00:06.962Z,58.10
2019-06-10T17:02:33.079Z,58.20
2019-06-10T17:05:03.189Z,58.10
2019-06-10T17:07:33.067Z,58.00
2019-06-10T17:10:03.040Z,58.70
2019-06-10T17:12:33.089Z,59.20
2019-06-10T17:15:03.422Z,59.00
2019-06-10T17:17:33.071Z,59.70
2019-06-10T17:20:03.769Z,60.00
2019-06-10T17:22:35.653Z,60.00
2019-06-10T17:25:05.765Z,60.50
2019-06-10T17:27:34.660Z,60.90
2019-06-10T17:30:03.865Z,61.40
2019-06-10T17:32:33.135Z,61.90
2019-06-10T17:35:02.421Z,61.60
2019-06-10T17:37:33.625Z,61.50
2019-06-10T17:40:02.635Z,62.50
2019-06-10T17:42:38.020Z,62.60
2019-06-10T17:45:02.688Z,62.60
2019-06-10T17:47:34.650Z,63.00
2019-06-10T17:50:07.412Z,63.50
2019-06-10T17:52:39.380Z,64.00
2019-06-10T17:55:08.395Z,64.00
2019-06-10T17:57:37.072Z,64.10
2019-06-10T18:00:12.289Z,64.10
2019-06-10T18:02:42.578Z,64.20
2019-06-10T18:05:12.794Z,64.60
2019-06-10T18:07:46.100Z,64.40
2019-06-10T18:10:15.905Z,65.10
2019-06-10T18:12:45.312Z,65.10
2019-06-10T18:15:15.270Z,65.10
2019-06-10T18:17:44.033Z,65.60
2019-06-10T18:20:13.683Z,66.20
2019-06-10T18:22:45.479Z,66.10
2019-06-10T18:25:15.167Z,66.30
2019-06-10T18:27:43.811Z,66.80
2019-06-10T18:30:14.564Z,66.60
2019-06-10T18:32:43.413Z,67.60
2019-06-10T18:35:14.251Z,67.90
2019-06-10T18:37:42.589Z,68.90
2019-06-10T18:40:14.608Z,68.90
2019-06-10T18:42:43.497Z,69.20
2019-06-10T18:45:13.973Z,70.00
2019-06-10T18:47:43.392Z,70.70
2019-06-10T18:50:13.124Z,71.20
2019-06-10T18:52:43.301Z,72.30
2019-06-10T18:55:13.202Z,72.20
2019-06-10T18:57:42.616Z,73.00
2019-06-10T19:00:16.205Z,73.90
2019-06-10T19:02:47.003Z,75.10
2019-06-10T19:05:17.500Z,74.70
2019-06-10T19:07:46.922Z,75.30
2019-06-10T19:10:23.181Z,75.70
2019-06-10T19:12:55.129Z,76.20
2019-06-10T19:15:27.130Z,76.80
2019-06-10T19:17:57.956Z,77.50
2019-06-10T19:20:26.857Z,78.00
2019-06-10T19:22:55.700Z,79.00
2019-06-10T19:25:27.112Z,79.20
2019-06-10T19:27:55.915Z,79.60
2019-06-10T19:30:27.040Z,80.20
2019-06-10T19:32:56.948Z,80.40
2019-06-10T19:35:25.696Z,81.00
2019-06-10T19:37:55.551Z,81.40
2019-06-10T19:40:27.132Z,82.00
2019-06-10T19:42:55.914Z,82.40
2019-06-10T19:45:32.100Z,83.60
2019-06-10T19:48:03.400Z,83.40
2019-06-10T19:50:34.012Z,84.10
2019-06-10T19:53:03.833Z,85.30
2019-06-10T19:55:34.038Z,85.50
2019-06-10T19:58:04.716Z,86.10
2019-06-10T20:00:37.426Z,86.60
2019-06-10T20:03:06.708Z,87.20
2019-06-10T20:05:44.923Z,87.40
2019-06-10T20:08:12.178Z,88.00
2019-06-10T20:10:42.908Z,88.90
2019-06-10T20:13:15.990Z,89.60
2019-06-10T20:15:44.986Z,89.70
2019-06-10T20:18:13.312Z,90.10
2019-06-10T20:20:45.607Z,90.10
2019-06-10T20:23:12.792Z,90.50
2019-06-10T20:25:44.451Z,90.70
2019-06-10T20:28:13.185Z,90.80
2019-06-10T20:30:46.111Z,90.90
2019-06-10T20:33:20.204Z,91.10
2019-06-10T20:35:50.920Z,91.50
2019-06-10T20:38:22.261Z,91.80
2019-06-10T20:40:55.213Z,92.00
2019-06-10T20:43:24.984Z,92.00
2019-06-10T20:45:58.168Z,92.10
2019-06-10T20:48:28.789Z,92.40
2019-06-10T20:50:58.835Z,92.60
2019-06-10T20:53:28.938Z,92.80
2019-06-10T20:55:57.843Z,92.80
2019-06-10T20:58:26.970Z,93.10
2019-06-10T21:00:57.319Z,93.10
2019-06-10T21:03:26.146Z,93.00
2019-06-10T21:05:56.297Z,93.40
2019-06-10T21:08:26.752Z,93.40
2019-06-10T21:11:02.682Z,93.60
2019-06-10T21:13:32.606Z,93.80
2019-06-10T21:16:03.911Z,93.90
2019-06-10T21:18:33.249Z,94.10
2019-06-10T21:21:04.726Z,94.40
2019-06-10T21:23:36.610Z,94.90
2019-06-10T21:26:05.776Z,94.60
2019-06-10T21:28:36.400Z,94.70
2019-06-10T21:31:05.177Z,95.10
2019-06-10T21:33:35.666Z,95.20
2019-06-10T21:36:06.954Z,95.20
2019-06-10T21:38:37.956Z,95.30
2019-06-10T21:41:08.164Z,95.30
2019-06-10T21:43:40.647Z,95.60
2019-06-10T21:46:07.907Z,95.80
2019-06-10T21:48:38.200Z,96.00
2019-06-10T21:51:07.044Z,96.10
2019-06-10T21:53:35.735Z,96.20
2019-06-10T21:56:05.704Z,96.80
2019-06-10T21:58:35.378Z,96.60
2019-06-10T22:01:12.887Z,96.60
2019-06-10T22:03:38.613Z,96.70
2019-06-10T22:06:07.641Z,96.90
2019-06-10T22:08:42.320Z,96.90
2019-06-10T22:11:10.516Z,97.20
2019-06-10T22:13:39.140Z,97.30
2019-06-10T22:16:08.308Z,97.50
2019-06-10T22:18:37.895Z,97.60
2019-06-10T22:21:09.198Z,97.70
2019-06-10T22:23:39.137Z,97.90
2019-06-10T22:26:13.012Z,97.80
2019-06-10T22:28:43.111Z,97.80
2019-06-10T22:31:22.370Z,97.80
2019-06-10T22:33:43.434Z,97.90
2019-06-10T22:36:12.943Z,97.90
2019-06-10T22:38:47.778Z,97.90
2019-06-10T22:41:14.589Z,98.00
2019-06-10T22:43:45.389Z,98.00
2019-06-10T22:46:15.767Z,98.10
2019-06-10T22:48:44.490Z,98.30
2019-06-10T22:51:15.512Z,98.30
2019-06-10T22:53:45.987Z,98.40
2019-06-10T22:56:16.050Z,98.50
2019-06-10T22:58:44.807Z,98.70
2019-06-10T23:01:13.516Z,98.70
2019-06-10T23:03:42.205Z,98.70
2019-06-10T23:06:12.573Z,98.80
2019-06-10T23:08:43.663Z,98.90
2019-06-10T23:11:13.002Z,98.90
2019-06-10T23:13:42.421Z,99.30
2019-06-10T23:16:13.083Z,99.60
2019-06-10T23:18:42.464Z,99.90
2019-06-10T23:21:20.863Z,99.90
2019-06-10T23:23:52.276Z,99.90
2019-06-10T23:26:22.629Z,99.90
2019-06-10T23:28:54.094Z,99.90
2019-06-10T23:31:23.002Z,99.90
2019-06-10T23:33:56.019Z,99.90
2019-06-10T23:36:23.587Z,99.90
2019-06-10T23:38:54.851Z,99.90
2019-06-10T23:41:23.632Z,99.90
2019-06-10T23:43:55.025Z,99.90
2019-06-10T23:46:23.839Z,99.90
2019-06-10T23:48:53.440Z,99.90
2019-06-10T23:51:22.831Z,99.90
2019-06-10T23:53:58.376Z,99.90
2019-06-10T23:56:26.583Z,99.90
2019-06-10T23:58:58.390Z,99.90
